Time;durP1;ratioP1;P1;durP2;ratioP2;P2;SDS_P1;SDS_P2;PMS_P1;PMS_P2;Temp;Humidity;BMP_temperature;BMP_pressure;BME280_temperature;BME280_humidity;BME280_pressure;Samples;Min_cycle;Max_cycle;Signal;HPM_P1;HPM_P2
2023/04/02 00:00:09;;;;;;;12.60;4.85;;;5.40;99.90;;;;;;5136902;27;20383;-66
2023/04/02 00:02:47;;;;;;;8.27;5.28;;;5.40;99.90;;;;;;5108583;27;20038;-66
2023/04/02 00:05:17;;;;;;;10.60;4.90;;;5.40;99.90;;;;;;5090439;27;20048;-66
2023/04/02 00:07:47;;;;;;;7.72;4.75;;;5.30;99.90;;;;;;5115228;27;20074;-65
2023/04/02 00:10:47;;;;;;;9.18;5.15;;;5.30;99.90;;;;;;5117069;27;20104;-66
2023/04/02 00:13:12;;;;;;;12.07;5.50;;;5.30;99.90;;;;;;5109022;27;20139;-67
2023/04/02 00:15:41;;;;;;;8.90;5.10;;;5.30;99.90;;;;;;5112427;27;20648;-65
2023/04/02 00:18:20;;;;;;;9.30;5.43;;;5.30;99.90;;;;;;5113912;27;20047;-66
2023/04/02 00:21:11;;;;;;;8.10;5.15;;;5.30;99.90;;;;;;5107540;28;20054;-67
2023/04/02 00:23:40;;;;;;;8.27;4.95;;;5.30;99.90;;;;;;5047796;28;20052;-67
2023/04/02 00:26:37;;;;;;;8.90;4.93;;;5.30;99.90;;;;;;5043476;28;20052;-65
2023/04/02 00:29:05;;;;;;;10.52;5.30;;;5.20;99.90;;;;;;5019784;28;20262;-67
2023/04/02 00:31:32;;;;;;;6.85;5.00;;;5.20;99.90;;;;;;5016559;28;20849;-67
2023/04/02 00:34:00;;;;;;;7.45;4.70;;;5.20;99.90;;;;;;5017485;28;20049;-67
2023/04/02 00:36:29;;;;;;;9.90;5.03;;;5.20;99.90;;;;;;5003961;28;20045;-68
2023/04/02 00:38:58;;;;;;;7.03;4.15;;;5.20;99.90;;;;;;5001840;28;20052;-66
2023/04/02 00:41:28;;;;;;;9.18;4.95;;;5.10;99.90;;;;;;4984965;28;20635;-67
2023/04/02 00:43:56;;;;;;;10.10;4.85;;;5.10;99.90;;;;;;4996132;28;20046;-65
2023/04/02 00:46:29;;;;;;;7.35;4.97;;;5.10;99.90;;;;;;5001572;28;20053;-66
2023/04/02 00:48:58;;;;;;;9.90;4.47;;;5.10;99.90;;;;;;5004560;28;20038;-67
2023/04/02 00:51:43;;;;;;;7.13;4.80;;;5.10;99.90;;;;;;4997464;28;20079;-67
2023/04/02 00:54:14;;;;;;;8.45;4.82;;;5.00;99.90;;;;;;4998751;28;20046;-65
2023/04/02 00:56:45;;;;;;;7.28;4.68;;;5.00;99.90;;;;;;5002360;28;20045;-66
2023/04/02 00:59:25;;;;;;;6.55;4.30;;;5.00;99.90;;;;;;4987701;28;20049;-67
2023/04/02 01:01:55;;;;;;;6.82;4.28;;;5.00;99.90;;;;;;5047166;28;20044;-67
2023/04/02 01:04:32;;;;;;;8.70;5.05;;;5.00;99.90;;;;;;5018124;28;20036;-64
2023/04/02 01:07:07;;;;;;;8.50;4.78;;;5.00;99.90;;;;;;5055184;28;20052;-65
2023/04/02 01:09:47;;;;;;;8.48;4.10;;;5.00;99.90;;;;;;5111358;27;20044;-68
2023/04/02 01:12:18;;;;;;;7.78;4.70;;;5.00;99.90;;;;;;5085770;28;20049;-68
2023/04/02 01:15:07;;;;;;;9.70;4.88;;;4.90;99.90;;;;;;5083242;28;20608;-68
2023/04/02 01:18:12;;;;;;;7.50;4.45;;;4.90;99.90;;;;;;5083221;28;20055;-67
2023/04/02 01:21:00;;;;;;;5.07;3.95;;;4.90;99.90;;;;;;5039117;28;20891;-67
2023/04/02 01:23:57;;;;;;;7.10;4.68;;;4.80;99.90;;;;;;5041170;28;20115;-66
2023/04/02 01:26:56;;;;;;;6.72;4.10;;;4.80;99.90;;;;;;5022113;28;20127;-66
2023/04/02 01:29:36;;;;;;;6.35;3.95;;;4.80;99.90;;;;;;5040065;28;20049;-67
2023/04/02 01:32:14;;;;;;;6.88;3.85;;;4.80;99.90;;;;;;5040487;28;20279;-66
2023/04/02 01:34:43;;;;;;;6.07;3.72;;;4.80;99.90;;;;;;5034619;28;20079;-68
2023/04/02 01:37:27;;;;;;;7.15;4.20;;;4.70;99.90;;;;;;5053671;28;20041;-66
2023/04/02 01:40:11;;;;;;;7.70;4.43;;;4.70;99.90;;;;;;5042290;28;20074;-66
2023/04/02 01:42:46;;;;;;;7.45;3.63;;;4.70;99.90;;;;;;5036094;28;20044;-69
2023/04/02 01:45:18;;;;;;;6.28;3.45;;;4.70;99.90;;;;;;5026038;28;20080;-66
2023/04/02 01:47:44;;;;;;;9.00;4.38;;;4.60;99.90;;;;;;5043328;28;20032;-67
2023/04/02 01:50:21;;;;;;;7.13;4.05;;;4.60;99.90;;;;;;5037202;28;20044;-66
2023/04/02 01:52:54;;;;;;;6.47;4.25;;;4.60;99.90;;;;;;5036007;28;20053;-68
2023/04/02 01:55:28;;;;;;;;;;;4.60;99.90;;;;;;5038351;28;20052;-65
2023/04/02 01:57:54;;;;;;;7.47;3.70;;;4.50;99.90;;;;;;5069212;28;20000;-66
2023/04/02 02:00:21;;;;;;;5.88;3.78;;;4.50;99.90;;;;;;5079875;28;20123;-66
2023/04/02 02:02:49;;;;;;;5.07;3.25;;;4.40;99.90;;;;;;5082285;28;20032;-65
2023/04/02 02:05:18;;;;;;;7.82;3.80;;;4.40;99.90;;;;;;5084179;28;20966;-67
2023/04/02 02:07:44;;;;;;;7.50;3.55;;;4.30;99.90;;;;;;5089274;28;20380;-67
2023/04/02 02:10:38;;;;;;;7.20;3.25;;;4.30;99.90;;;;;;5082621;28;20048;-67
2023/04/02 02:13:03;;;;;;;6.93;3.58;;;4.10;99.90;;;;;;5096829;28;20509;-66
2023/04/02 02:15:34;;;;;;;5.30;3.33;;;4.00;99.90;;;;;;5084840;28;20051;-66
2023/04/02 02:18:04;;;;;;;6.95;3.40;;;4.00;99.90;;;;;;5084569;28;20040;-67
2023/04/02 02:20:31;;;;;;;8.00;3.30;;;3.90;99.90;;;;;;5097900;28;20122;-64
2023/04/02 02:22:59;;;;;;;6.05;3.22;;;3.80;99.90;;;;;;5115809;27;20048;-69
2023/04/02 02:25:27;;;;;;;7.07;3.30;;;3.70;99.90;;;;;;5117707;27;20035;-67
2023/04/02 02:27:55;;;;;;;4.60;3.00;;;3.60;99.90;;;;;;5101762;27;20414;-66
2023/04/02 02:30:25;;;;;;;8.57;3.55;;;3.50;99.90;;;;;;5083871;28;20043;-66
2023/04/02 02:33:06;;;;;;;6.18;2.85;;;3.50;99.90;;;;;;5084719;28;20521;-66
2023/04/02 02:36:12;;;;;;;5.78;3.10;;;3.40;99.90;;;;;;5114788;27;20524;-67
2023/04/02 02:38:56;;;;;;;5.38;2.80;;;3.30;99.90;;;;;;5106001;28;20505;-67
2023/04/02 02:41:34;;;;;;;6.55;2.90;;;3.30;99.90;;;;;;5082972;28;20544;-67
2023/04/02 02:44:11;;;;;;;10.52;3.15;;;3.20;99.90;;;;;;5099114;27;20368;-67
2023/04/02 02:46:43;;;;;;;6.30;2.85;;;3.10;99.90;;;;;;5111434;27;20107;-65
2023/04/02 02:49:15;;;;;;;5.03;2.70;;;3.10;99.90;;;;;;5103684;27;20111;-66
2023/04/02 02:51:48;;;;;;;7.03;2.80;;;3.00;99.90;;;;;;5125496;27;20043;-65
2023/04/02 02:54:16;;;;;;;6.43;3.17;;;3.00;99.90;;;;;;5147666;27;20528;-69
2023/04/02 02:56:48;;;;;;;6.68;2.83;;;2.90;99.90;;;;;;5113574;27;20458;-65
2023/04/02 02:59:14;;;;;;;5.95;2.78;;;2.90;99.90;;;;;;5118273;27;20162;-66
2023/04/02 03:01:42;;;;;;;6.40;3.00;;;2.90;99.90;;;;;;5112312;27;20571;-65
2023/04/02 03:04:08;;;;;;;5.72;2.67;;;2.80;99.90;;;;;;5108191;27;20146;-66
2023/04/02 03:06:35;;;;;;;5.88;2.67;;;2.80;99.90;;;;;;5106224;27;20122;-66
2023/04/02 03:09:32;;;;;;;5.38;2.80;;;2.80;99.90;;;;;;5098871;27;20118;-66
2023/04/02 03:12:22;;;;;;;7.65;2.95;;;2.70;99.90;;;;;;5081190;28;20063;-65
2023/04/02 03:15:07;;;;;;;5.55;2.65;;;2.70;99.90;;;;;;5048936;28;20137;-67
2023/04/02 03:18:00;;;;;;;6.10;2.65;;;2.60;99.90;;;;;;5069970;28;20143;-64
2023/04/02 03:20:47;;;;;;;5.05;2.50;;;2.60;99.90;;;;;;5054148;28;20102;-67
2023/04/02 03:23:34;;;;;;;7.72;3.42;;;2.50;99.90;;;;;;5034465;28;20044;-67
2023/04/02 03:26:15;;;;;;;8.60;4.28;;;2.50;99.90;;;;;;5049003;28;20795;-68
2023/04/02 03:28:48;;;;;;;5.85;2.85;;;2.40;99.90;;;;;;5048989;28;20048;-66
2023/04/02 03:31:29;;;;;;;9.10;3.40;;;2.40;99.90;;;;;;5045698;28;20499;-66
2023/04/02 03:34:16;;;;;;;7.13;2.88;;;2.40;99.90;;;;;;5066398;28;20049;-67
2023/04/02 03:36:55;;;;;;;6.30;2.75;;;2.30;99.90;;;;;;5054521;28;20612;-65
2023/04/02 03:39:31;;;;;;;5.28;2.70;;;2.30;99.90;;;;;;5048979;28;20111;-66
2023/04/02 03:42:13;;;;;;;7.25;3.38;;;2.20;99.90;;;;;;5049657;28;20048;-68
2023/04/02 03:45:04;;;;;;;7.05;2.90;;;2.20;99.90;;;;;;5053502;28;20048;-67
2023/04/02 03:47:46;;;;;;;6.60;2.70;;;2.20;99.90;;;;;;5036233;28;20040;-67
2023/04/02 03:50:22;;;;;;;8.52;2.83;;;2.20;99.90;;;;;;5103626;27;20045;-65
2023/04/02 03:52:48;;;;;;;7.00;3.10;;;2.10;99.90;;;;;;5108494;27;20039;-68
2023/04/02 03:55:27;;;;;;;4.13;2.47;;;2.10;99.90;;;;;;5108383;27;20069;-64
2023/04/02 03:58:12;;;;;;;5.93;2.88;;;2.10;99.90;;;;;;5110689;27;20371;-66
2023/04/02 04:00:59;;;;;;;7.80;2.70;;;2.10;99.90;;;;;;5108025;27;20067;-65
2023/04/02 04:03:35;;;;;;;7.43;2.55;;;2.10;99.90;;;;;;5108492;27;20032;-67
2023/04/02 04:06:11;;;;;;;5.50;2.45;;;2.10;99.90;;;;;;5109814;27;20146;-66
2023/04/02 04:08:50;;;;;;;5.75;2.50;;;2.20;99.90;;;;;;5100471;27;20046;-66
2023/04/02 04:11:20;;;;;;;5.72;2.53;;;2.20;99.90;;;;;;5104331;27;20043;-65
2023/04/02 04:13:53;;;;;;;5.13;2.67;;;2.20;99.90;;;;;;5082194;27;20044;-66
2023/04/02 04:16:28;;;;;;;4.97;2.55;;;2.20;99.90;;;;;;5104430;27;20047;-67
2023/04/02 04:19:02;;;;;;;7.25;2.97;;;2.20;99.90;;;;;;5102723;27;20040;-65
2023/04/02 04:21:29;;;;;;;6.40;2.65;;;2.30;99.90;;;;;;5106338;27;20045;-66
2023/04/02 04:24:06;;;;;;;5.80;2.60;;;2.30;99.90;;;;;;5108479;27;20110;-66
2023/04/02 04:26:48;;;;;;;6.25;2.63;;;2.20;99.90;;;;;;5104527;27;20054;-68
2023/04/02 04:29:37;;;;;;;5.28;2.25;;;2.30;99.90;;;;;;5136328;27;20027;-66
2023/04/02 04:32:30;;;;;;;9.45;2.95;;;2.20;99.90;;;;;;5103585;27;20745;-66
2023/04/02 04:35:16;;;;;;;4.82;2.53;;;2.20;99.90;;;;;;5109165;27;20046;-68
2023/04/02 04:37:43;;;;;;;7.30;2.60;;;2.20;99.90;;;;;;5108777;27;20048;-65
2023/04/02 04:40:31;;;;;;;5.55;2.50;;;2.20;99.90;;;;;;5112305;27;20086;-68
2023/04/02 04:43:02;;;;;;;8.60;2.53;;;2.20;99.90;;;;;;5108049;27;20067;-68
2023/04/02 04:45:34;;;;;;;4.95;2.30;;;2.20;99.90;;;;;;5114648;27;20121;-65
2023/04/02 04:48:12;;;;;;;4.50;2.35;;;2.10;99.90;;;;;;5142132;27;20046;-67
2023/04/02 04:50:48;;;;;;;5.68;2.35;;;2.20;99.90;;;;;;5109972;27;20038;-68
2023/04/02 04:53:23;;;;;;;7.60;2.35;;;2.20;99.90;;;;;;5113125;27;20095;-65
2023/04/02 04:55:52;;;;;;;7.15;2.15;;;2.20;99.90;;;;;;5127008;27;20108;-66
2023/04/02 04:58:44;;;;;;;5.28;2.35;;;2.20;99.90;;;;;;5105023;27;20466;-67
2023/04/02 05:01:57;;;;;;;6.95;2.53;;;2.10;99.90;;;;;;5061374;28;20053;-65
2023/04/02 05:04:26;;;;;;;5.78;2.35;;;2.10;99.90;;;;;;5014400;28;20074;-66
2023/04/02 05:07:06;;;;;;;5.07;2.10;;;2.10;99.90;;;;;;5026750;28;20539;-67
2023/04/02 05:10:05;;;;;;;5.82;2.53;;;2.00;99.90;;;;;;5055132;28;20045;-67
2023/04/02 05:13:02;;;;;;;6.93;2.20;;;2.00;99.90;;;;;;4932659;28;20046;-66
2023/04/02 05:15:38;;;;;;;8.57;2.63;;;2.00;99.90;;;;;;4906926;29;20044;-67
2023/04/02 05:18:29;;;;;;;4.95;2.00;;;1.90;99.90;;;;;;4920111;29;20047;-65
2023/04/02 05:21:12;;;;;;;3.78;1.90;;;1.90;99.90;;;;;;4916656;29;20051;-66
2023/04/02 05:23:50;;;;;;;3.60;1.77;;;2.00;99.90;;;;;;4916190;29;20097;-64
2023/04/02 05:26:29;;;;;;;3.85;1.92;;;1.90;99.90;;;;;;4908774;29;20062;-66
2023/04/02 05:29:04;;;;;;;5.72;1.80;;;1.90;99.90;;;;;;4909908;29;20127;-68
2023/04/02 05:31:40;;;;;;;3.53;1.70;;;1.90;99.90;;;;;;4915819;29;20043;-69
2023/04/02 05:34:06;;;;;;;5.60;2.00;;;1.90;99.90;;;;;;4917402;29;20083;-64
2023/04/02 05:36:32;;;;;;;6.40;1.63;;;1.90;99.90;;;;;;4910002;29;20094;-67
2023/04/02 05:38:59;;;;;;;11.55;2.78;;;1.90;99.90;;;;;;4944829;28;20492;-66
2023/04/02 05:41:37;;;;;;;4.85;2.00;;;1.90;99.90;;;;;;4936638;28;20047;-67
2023/04/02 05:44:23;;;;;;;6.70;2.25;;;1.90;99.90;;;;;;4964088;28;20070;-66
2023/04/02 05:46:53;;;;;;;6.85;1.90;;;2.00;99.90;;;;;;4954601;28;20560;-66
2023/04/02 05:49:40;;;;;;;4.85;1.77;;;2.00;99.90;;;;;;5017738;28;20377;-66
2023/04/02 05:52:11;;;;;;;5.72;1.70;;;2.00;99.90;;;;;;5059006;27;20043;-67
2023/04/02 05:54:42;;;;;;;8.63;2.28;;;2.00;99.90;;;;;;5120270;27;20708;-66
2023/04/02 05:57:14;;;;;;;7.57;2.33;;;2.00;99.90;;;;;;5115979;27;20066;-65
2023/04/02 05:59:49;;;;;;;5.80;1.98;;;2.00;99.90;;;;;;5103772;27;20905;-67
2023/04/02 06:02:31;;;;;;;4.13;1.40;;;2.10;99.90;;;;;;5106369;27;20039;-68
2023/04/02 06:05:04;;;;;;;5.75;1.80;;;2.10;99.90;;;;;;5106772;27;21114;-67
2023/04/02 06:07:57;;;;;;;4.93;1.55;;;2.10;99.90;;;;;;5087902;27;20039;-64
2023/04/02 06:10:28;;;;;;;7.50;2.00;;;2.20;99.90;;;;;;5148499;27;20095;-66
2023/04/02 06:13:09;;;;;;;5.97;1.90;;;2.20;99.90;;;;;;5107114;27;20134;-68
2023/04/02 06:15:37;;;;;;;8.27;1.77;;;2.30;99.90;;;;;;5090753;27;20051;-67
2023/04/02 06:18:22;;;;;;;6.25;1.35;;;2.30;99.90;;;;;;5099909;27;20116;-65
2023/04/02 06:20:48;;;;;;;3.03;1.40;;;2.40;99.90;;;;;;5099810;27;20059;-67
2023/04/02 06:23:38;;;;;;;4.22;1.40;;;2.40;99.90;;;;;;5105822;27;20117;-67
2023/04/02 06:26:14;;;;;;;5.53;1.63;;;2.40;99.90;;;;;;5109939;27;20047;-67
2023/04/02 06:28:47;;;;;;;4.18;1.38;;;2.40;99.90;;;;;;5110142;27;20042;-66
2023/04/02 06:31:40;;;;;;;4.90;1.70;;;2.50;99.90;;;;;;5148945;27;20068;-66
2023/04/02 06:34:12;;;;;;;5.10;1.75;;;2.50;99.90;;;;;;5129278;27;20050;-66
2023/04/02 06:36:39;;;;;;;3.78;1.63;;;2.60;99.90;;;;;;5113616;27;20043;-67
2023/04/02 06:39:10;;;;;;;6.70;2.05;;;2.60;99.90;;;;;;5136724;27;20039;-66
2023/04/02 06:41:38;;;;;;;5.85;1.98;;;2.70;99.90;;;;;;5122197;27;20047;-66
2023/04/02 06:44:11;;;;;;;6.28;1.85;;;2.80;99.90;;;;;;5121678;28;20044;-66
2023/04/02 06:46:51;;;;;;;4.93;2.08;;;2.90;99.90;;;;;;5109749;28;20038;-66
2023/04/02 06:49:43;;;;;;;6.43;2.20;;;2.90;99.90;;;;;;5102645;28;20047;-67
2023/04/02 06:52:21;;;;;;;5.50;1.73;;;3.00;99.90;;;;;;5107966;28;20487;-69
2023/04/02 06:54:47;;;;;;;4.50;1.40;;;3.00;99.90;;;;;;5118292;28;20106;-68
2023/04/02 06:57:13;;;;;;;2.25;1.20;;;3.00;99.90;;;;;;5095551;27;20088;-67
2023/04/02 06:59:38;;;;;;;8.32;1.95;;;3.00;99.90;;;;;;5111700;28;20035;-65
2023/04/02 07:02:25;;;;;;;4.65;1.58;;;3.10;99.90;;;;;;5111994;28;20034;-68
2023/04/02 07:04:52;;;;;;;5.22;1.30;;;3.20;99.90;;;;;;5112705;27;20510;-68
2023/04/02 07:07:18;;;;;;;4.30;1.42;;;3.20;99.90;;;;;;5122019;27;20185;-67
2023/04/02 07:09:43;;;;;;;3.65;1.10;;;3.30;99.90;;;;;;5113438;27;20143;-66
2023/04/02 07:12:13;;;;;;;5.70;1.58;;;3.40;99.90;;;;;;5113545;27;20114;-67
2023/04/02 07:14:39;;;;;;;4.97;1.55;;;3.40;99.90;;;;;;5095194;28;20043;-69
2023/04/02 07:17:04;;;;;;;5.75;1.17;;;3.40;99.90;;;;;;5094800;28;20043;-68
2023/04/02 07:19:30;;;;;;;6.05;1.50;;;3.40;99.90;;;;;;5111784;28;20123;-66
2023/04/02 07:21:55;;;;;;;4.05;1.65;;;3.40;99.90;;;;;;5132358;27;20050;-66
2023/04/02 07:24:21;;;;;;;4.95;1.15;;;3.40;99.90;;;;;;5132873;27;20042;-66
2023/04/02 07:26:47;;;;;;;5.05;1.73;;;3.50;99.90;;;;;;5127777;27;20032;-66
2023/04/02 07:29:14;;;;;;;6.53;2.35;;;3.50;99.90;;;;;;5111720;28;20042;-67
2023/04/02 07:31:41;;;;;;;5.38;1.27;;;3.70;99.90;;;;;;5110920;28;20067;-64
2023/04/02 07:34:07;;;;;;;4.03;1.20;;;3.80;99.90;;;;;;5112548;27;20039;-65
2023/04/02 07:36:32;;;;;;;5.63;1.30;;;3.80;99.90;;;;;;5111814;28;20498;-66
2023/04/02 07:38:58;;;;;;;10.13;6.40;;;3.80;99.90;;;;;;5113500;27;20047;-66
2023/04/02 07:41:25;;;;;;;5.10;2.28;;;3.90;99.90;;;;;;5114903;27;20031;-66
2023/04/02 07:43:51;;;;;;;3.75;1.55;;;3.80;99.90;;;;;;5111749;27;20085;-66
2023/04/02 07:46:18;;;;;;;4.22;1.38;;;3.90;99.90;;;;;;5093998;28;20542;-68
2023/04/02 07:48:45;;;;;;;3.60;1.20;;;3.90;99.90;;;;;;5124509;27;20065;-67
2023/04/02 07:51:22;;;;;;;5.25;2.13;;;3.90;99.90;;;;;;5103558;27;20054;-65
2023/04/02 07:53:49;;;;;;;6.05;1.40;;;4.00;99.90;;;;;;5126783;27;20046;-67
2023/04/02 07:56:18;;;;;;;6.38;1.70;;;4.00;99.90;;;;;;5105744;28;20116;-64
2023/04/02 07:58:44;;;;;;;5.80;1.60;;;4.00;99.90;;;;;;5127786;27;20089;-65
2023/04/02 08:01:24;;;;;;;3.33;1.25;;;4.20;99.90;;;;;;5115204;27;20039;-70
2023/04/02 08:03:50;;;;;;;4.80;1.23;;;4.30;99.90;;;;;;5093512;28;20428;-66
2023/04/02 08:06:16;;;;;;;6.18;1.25;;;4.50;99.90;;;;;;5110409;28;20038;-65
2023/04/02 08:08:42;;;;;;;4.65;1.35;;;4.70;99.90;;;;;;5114700;27;20522;-69
2023/04/02 08:11:09;;;;;;;7.32;2.40;;;4.90;99.90;;;;;;5118613;27;20039;-69
2023/04/02 08:13:34;;;;;;;4.03;1.10;;;5.20;99.90;;;;;;5130025;27;20043;-67
2023/04/02 08:16:01;;;;;;;3.53;1.00;;;5.40;99.90;;;;;;5117601;27;20093;-69
2023/04/02 08:18:27;;;;;;;5.20;1.30;;;5.80;99.90;;;;;;5115913;27;20600;-69
2023/04/02 08:20:53;;;;;;;5.13;1.20;;;5.80;99.90;;;;;;5129533;27;20141;-68
2023/04/02 08:23:20;;;;;;;8.38;1.35;;;5.90;99.90;;;;;;5113766;27;20122;-68
2023/04/02 08:25:46;;;;;;;4.88;1.30;;;5.70;99.90;;;;;;5109168;28;20046;-67
2023/04/02 08:28:12;;;;;;;2.38;1.00;;;5.70;99.90;;;;;;5109271;28;20055;-66
2023/04/02 08:30:38;;;;;;;4.90;1.73;;;5.60;99.90;;;;;;5092637;27;20057;-70
2023/04/02 08:33:03;;;;;;;2.67;1.15;;;5.60;99.90;;;;;;5096735;27;20051;-69
2023/04/02 08:35:29;;;;;;;3.88;1.00;;;5.90;99.90;;;;;;5119435;27;20047;-69
2023/04/02 08:37:55;;;;;;;4.07;1.58;;;6.10;99.90;;;;;;5121957;27;20062;-67
2023/04/02 08:40:25;;;;;;;3.70;1.30;;;6.40;99.90;;;;;;5112890;27;20486;-66
2023/04/02 08:43:20;;;;;;;4.00;1.20;;;6.60;99.90;;;;;;5112753;27;20036;-66
2023/04/02 08:46:00;;;;;;;3.10;1.10;;;6.70;99.90;;;;;;5154860;27;20043;-67
2023/04/02 08:48:26;;;;;;;3.45;1.20;;;6.80;99.90;;;;;;5120843;27;20122;-66
2023/04/02 08:50:52;;;;;;;3.42;1.15;;;6.90;99.90;;;;;;5116218;27;20040;-68
2023/04/02 08:53:20;;;;;;;3.55;1.20;;;6.90;99.90;;;;;;5123452;27;20050;-66
2023/04/02 08:56:17;;;;;;;3.45;1.10;;;7.00;99.90;;;;;;5114741;27;20035;-67
2023/04/02 08:58:50;;;;;;;3.10;1.05;;;7.20;99.90;;;;;;5092141;28;20043;-67
2023/04/02 09:01:25;;;;;;;;;;;7.30;99.90;;;;;;5108100;27;20057;-68
2023/04/02 09:03:55;;;;;;;6.45;1.38;;;7.40;99.90;;;;;;5112327;27;19926;-66
2023/04/02 09:06:22;;;;;;;9.65;1.27;;;7.50;99.90;;;;;;5110420;27;20035;-66
2023/04/02 09:08:50;;;;;;;3.30;1.05;;;7.60;99.90;;;;;;5108520;27;20539;-69
2023/04/02 09:11:41;;;;;;;3.58;1.23;;;7.70;99.90;;;;;;5115705;27;20039;-66
2023/04/02 09:14:33;;;;;;;5.35;1.23;;;7.90;99.90;;;;;;5115992;27;20430;-67
2023/04/02 09:17:02;;;;;;;4.03;1.25;;;8.00;99.90;;;;;;5057565;28;20187;-67
2023/04/02 09:19:39;;;;;;;4.57;1.05;;;8.00;99.90;;;;;;5034816;28;20132;-68
2023/04/02 09:22:15;;;;;;;3.30;1.00;;;8.30;99.90;;;;;;5059924;28;20058;-67
2023/04/02 09:24:40;;;;;;;4.65;1.77;;;8.40;99.90;;;;;;5058731;28;20040;-70
2023/04/02 09:27:17;;;;;;;3.92;0.95;;;8.50;99.90;;;;;;5050054;28;20032;-71
2023/04/02 09:29:45;;;;;;;4.18;1.35;;;8.70;99.90;;;;;;5052801;28;20036;-67
2023/04/02 09:32:31;;;;;;;2.45;1.10;;;8.70;99.90;;;;;;5035010;28;20044;-67
2023/04/02 09:35:20;;;;;;;4.88;1.55;;;8.90;99.90;;;;;;5050501;28;20055;-67
2023/04/02 09:37:47;;;;;;;1.88;1.00;;;9.10;99.90;;;;;;5048380;28;20484;-68
2023/04/02 09:40:16;;;;;;;3.47;1.10;;;9.30;99.90;;;;;;5055170;28;20571;-68
2023/04/02 09:42:42;;;;;;;6.22;1.35;;;9.30;99.90;;;;;;5033451;28;20471;-70
2023/04/02 09:45:20;;;;;;;6.30;1.63;;;9.60;99.90;;;;;;5050494;28;20063;-65
2023/04/02 09:47:47;;;;;;;4.85;1.10;;;9.60;99.90;;;;;;5030232;28;20084;-66
2023/04/02 09:50:14;;;;;;;3.03;1.20;;;9.60;99.90;;;;;;5050271;28;20047;-67
2023/04/02 09:52:39;;;;;;;4.53;1.23;;;9.70;99.90;;;;;;5049702;28;20040;-67
2023/04/02 09:55:14;;;;;;;4.13;0.93;;;10.00;99.90;;;;;;5106789;28;20460;-65
2023/04/02 09:57:41;;;;;;;2.92;0.90;;;10.10;99.90;;;;;;5107610;28;20563;-64
2023/04/02 10:00:07;;;;;;;3.58;1.00;;;10.10;99.90;;;;;;5110865;28;20118;-70
2023/04/02 10:02:33;;;;;;;2.67;0.90;;;10.20;99.90;;;;;;5111676;28;20114;-67
2023/04/02 10:05:03;;;;;;;4.80;1.00;;;10.20;99.90;;;;;;5107712;28;20478;-67
2023/04/02 10:07:51;;;;;;;1.95;1.10;;;10.40;99.90;;;;;;5108586;28;20032;-66
2023/04/02 10:10:35;;;;;;;5.30;1.30;;;10.50;99.90;;;;;;5107102;28;20043;-68
2023/04/02 10:13:13;;;;;;;3.00;1.30;;;10.50;99.90;;;;;;5126615;28;20183;-68
2023/04/02 10:16:04;;;;;;;3.72;0.95;;;10.60;99.90;;;;;;5106360;28;20127;-67
2023/04/02 10:18:43;;;;;;;3.53;0.88;;;10.70;99.90;;;;;;5107762;28;20050;-66
2023/04/02 10:21:13;;;;;;;2.95;1.52;;;11.00;99.90;;;;;;5147285;27;20071;-64
2023/04/02 10:23:38;;;;;;;3.80;1.50;;;11.30;99.90;;;;;;5117892;28;20043;-65
2023/04/02 10:26:27;;;;;;;2.00;1.00;;;11.40;99.90;;;;;;5108553;28;20050;-65
2023/04/02 10:29:21;;;;;;;2.28;1.00;;;11.20;99.90;;;;;;5009765;28;20048;-66
2023/04/02 10:31:58;;;;;;;3.03;1.10;;;11.50;99.90;;;;;;5041112;28;20038;-68
2023/04/02 10:34:27;;;;;;;3.35;1.08;;;11.70;99.90;;;;;;5013420;28;20045;-69
2023/04/02 10:37:02;;;;;;;4.63;0.98;;;11.90;99.90;;;;;;5034168;28;20103;-66
2023/04/02 10:39:40;;;;;;;2.70;1.10;;;12.10;99.90;;;;;;5034556;28;20062;-68
2023/04/02 10:42:33;;;;;;;3.38;1.00;;;12.40;99.90;;;;;;5012848;28;20047;-67
2023/04/02 10:45:27;;;;;;;4.00;1.10;;;12.50;99.10;;;;;;5029709;28;20095;-67
2023/04/02 10:48:02;;;;;;;4.07;1.13;;;12.80;99.50;;;;;;5039895;28;20243;-66
2023/04/02 10:50:36;;;;;;;3.25;0.90;;;12.80;98.20;;;;;;5013784;28;20037;-71
2023/04/02 10:53:14;;;;;;;2.85;1.10;;;12.80;97.20;;;;;;5028114;28;20520;-67
2023/04/02 10:55:45;;;;;;;2.35;0.90;;;12.90;98.00;;;;;;5014070;28;20071;-69
2023/04/02 10:58:26;;;;;;;3.55;1.00;;;13.10;97.50;;;;;;5013838;28;20046;-67
2023/04/02 11:01:15;;;;;;;2.97;1.02;;;13.20;95.80;;;;;;5011731;28;20034;-66
2023/04/02 11:03:52;;;;;;;2.17;0.90;;;13.50;97.40;;;;;;5040901;28;20041;-66
2023/04/02 11:06:24;;;;;;;2.72;0.90;;;13.60;96.10;;;;;;5065843;28;20394;-68
2023/04/02 11:08:54;;;;;;;2.50;0.83;;;13.80;97.30;;;;;;5088944;28;20032;-67
2023/04/02 11:11:27;;;;;;;3.40;1.17;;;14.00;96.40;;;;;;5099587;28;20040;-68
2023/04/02 11:14:04;;;;;;;2.53;0.95;;;14.10;95.90;;;;;;5096078;28;20043;-68
2023/04/02 11:16:30;;;;;;;3.42;0.88;;;14.10;94.60;;;;;;5108940;28;20154;-68
2023/04/02 11:19:14;;;;;;;3.40;1.02;;;14.20;94.90;;;;;;5102216;28;20040;-70
2023/04/02 11:21:48;;;;;;;1.58;0.90;;;14.20;93.80;;;;;;5101068;28;20077;-68
2023/04/02 11:24:28;;;;;;;2.83;1.10;;;14.30;93.80;;;;;;5096829;28;20563;-66
2023/04/02 11:27:08;;;;;;;2.30;0.90;;;14.50;93.90;;;;;;5094363;28;20040;-68
2023/04/02 11:29:39;;;;;;;1.98;0.93;;;14.70;93.80;;;;;;5093483;28;20115;-67
2023/04/02 11:32:24;;;;;;;1.73;1.00;;;14.80;94.10;;;;;;5094309;28;20047;-70
2023/04/02 11:34:50;;;;;;;3.30;0.90;;;14.90;93.10;;;;;;5090315;28;20044;-66
2023/04/02 11:37:39;;;;;;;5.03;0.80;;;14.70;92.90;;;;;;5090740;28;20487;-69
2023/04/02 11:40:12;;;;;;;1.05;0.60;;;15.00;93.80;;;;;;5091546;28;20052;-69
2023/04/02 11:42:48;;;;;;;1.92;0.73;;;15.20;93.50;;;;;;5089870;28;20047;-69
2023/04/02 11:45:23;;;;;;;1.75;0.70;;;15.30;93.00;;;;;;5108222;28;20039;-70
2023/04/02 11:48:01;;;;;;;2.65;0.98;;;15.30;91.60;;;;;;5111675;27;20398;-68
2023/04/02 11:50:36;;;;;;;3.13;0.98;;;15.20;90.90;;;;;;5111993;28;20421;-69
2023/04/02 11:53:20;;;;;;;2.75;1.10;;;15.30;91.40;;;;;;5118096;27;20049;-68
2023/04/02 11:56:07;;;;;;;2.80;0.80;;;15.40;90.80;;;;;;5119818;27;20043;-68
2023/04/02 11:58:45;;;;;;;4.32;1.00;;;15.40;90.30;;;;;;5095466;28;20482;-67
2023/04/02 12:01:25;;;;;;;1.23;0.80;;;15.60;92.20;;;;;;5113298;27;20046;-70
2023/04/02 12:04:18;;;;;;;3.65;0.80;;;15.70;90.70;;;;;;5127430;27;20047;-68
2023/04/02 12:06:56;;;;;;;1.67;0.77;;;15.60;89.00;;;;;;5109303;27;20048;-69
2023/04/02 12:09:22;;;;;;;2.55;1.10;;;15.50;88.10;;;;;;5110648;28;20519;-65
2023/04/02 12:11:51;;;;;;;2.70;0.82;;;15.40;88.90;;;;;;5110536;28;20054;-69
2023/04/02 12:14:35;;;;;;;3.40;0.90;;;15.20;88.40;;;;;;5108635;28;20043;-67
2023/04/02 12:17:14;;;;;;;3.10;0.95;;;15.10;87.20;;;;;;5133631;27;20470;-66
2023/04/02 12:19:44;;;;;;;2.45;0.90;;;15.10;89.10;;;;;;5118418;27;20510;-69
2023/04/02 12:22:47;;;;;;;2.20;0.82;;;15.00;88.80;;;;;;5110365;27;20036;-66
2023/04/02 12:25:30;;;;;;;2.15;0.80;;;14.80;86.40;;;;;;5009998;28;20108;-69
2023/04/02 12:28:19;;;;;;;2.83;0.80;;;14.60;87.20;;;;;;5010877;28;20068;-69
2023/04/02 12:30:46;;;;;;;1.75;0.60;;;14.60;88.70;;;;;;5009020;28;20041;-69
2023/04/02 12:33:21;;;;;;;3.50;1.00;;;14.40;88.70;;;;;;4996739;28;20057;-68
2023/04/02 12:35:49;;;;;;;3.25;1.00;;;14.50;88.30;;;;;;4994504;28;20045;-68
2023/04/02 12:38:29;;;;;;;2.15;0.70;;;14.50;89.60;;;;;;5009974;28;20073;-71
2023/04/02 12:40:58;;;;;;;2.53;1.02;;;14.60;88.40;;;;;;5011809;28;20056;-65
2023/04/02 12:43:29;;;;;;;3.08;0.90;;;14.70;88.50;;;;;;5010658;28;21169;-67
2023/04/02 12:45:58;;;;;;;2.67;1.13;;;14.80;86.90;;;;;;5006580;28;20164;-69
2023/04/02 12:48:25;;;;;;;3.30;1.10;;;14.70;86.30;;;;;;5012570;28;20049;-70
2023/04/02 12:50:51;;;;;;;2.88;1.10;;;14.60;86.30;;;;;;5011702;28;20041;-68
2023/04/02 12:53:45;;;;;;;3.08;0.93;;;14.60;87.70;;;;;;5012191;28;20054;-69
2023/04/02 12:56:20;;;;;;;4.68;1.08;;;14.50;87.00;;;;;;5021417;28;20045;-67
2023/04/02 12:59:00;;;;;;;1.80;1.00;;;14.60;87.60;;;;;;5012262;28;20056;-70
2023/04/02 13:01:30;;;;;;;3.72;1.40;;;14.60;88.10;;;;;;5094316;27;20047;-69
2023/04/02 13:04:04;;;;;;;2.65;0.95;;;14.70;88.40;;;;;;5115901;27;20115;-67
2023/04/02 13:06:31;;;;;;;4.22;1.15;;;14.60;87.60;;;;;;5092658;28;20055;-68
2023/04/02 13:08:58;;;;;;;3.25;1.55;;;14.60;89.00;;;;;;5112982;27;20091;-69
2023/04/02 13:11:38;;;;;;;2.65;1.02;;;14.60;89.60;;;;;;5118977;27;20557;-69
2023/04/02 13:14:14;;;;;;;2.45;0.73;;;14.60;84.90;;;;;;5122255;27;20035;-69
2023/04/02 13:16:40;;;;;;;2.63;1.20;;;14.60;86.70;;;;;;5130170;27;20043;-67
2023/04/02 13:19:16;;;;;;;2.13;1.02;;;14.50;86.60;;;;;;5130233;27;20042;-66
2023/04/02 13:21:42;;;;;;;3.15;0.77;;;14.40;86.10;;;;;;5117979;27;20543;-67
2023/04/02 13:24:26;;;;;;;1.58;0.75;;;14.40;87.90;;;;;;5109612;28;20042;-66
2023/04/02 13:27:01;;;;;;;3.47;0.85;;;14.40;86.80;;;;;;5111797;27;20035;-67
2023/04/02 13:29:26;;;;;;;2.33;0.80;;;14.30;86.80;;;;;;5130154;27;20027;-68
2023/04/02 13:31:55;;;;;;;2.47;0.77;;;14.30;87.80;;;;;;5123112;27;20060;-67
2023/04/02 13:34:21;;;;;;;2.97;0.98;;;14.20;87.50;;;;;;5109565;28;20039;-67
2023/04/02 13:36:47;;;;;;;2.38;0.80;;;14.30;87.10;;;;;;5109273;28;20050;-68